sensor_id;sensor_type;location;lat;lon;timestamp;P1;durP1;ratioP1;P2;durP2;ratioP2
71730;SDS011;65964;43.496;3.710;2023-12-29T00:02:11;27.27;;;17.38;;
71730;SDS011;65964;43.496;3.710;2023-12-29T00:04:37;31.35;;;20.02;;
71730;SDS011;65964;43.496;3.710;2023-12-29T00:07:03;28.80;;;18.25;;
71730;SDS011;65964;43.496;3.710;2023-12-29T00:09:29;28.98;;;19.38;;
71730;SDS011;65964;43.496;3.710;2023-12-29T00:11:55;28.52;;;19.77;;
71730;SDS011;65964;43.496;3.710;2023-12-29T00:14:21;30.27;;;17.45;;
71730;SDS011;65964;43.496;3.710;2023-12-29T00:16:47;28.38;;;18.45;;
71730;SDS011;65964;43.496;3.710;2023-12-29T00:19:13;26.17;;;16.75;;
71730;SDS011;65964;43.496;3.710;2023-12-29T00:21:39;28.45;;;17.90;;
71730;SDS011;65964;43.496;3.710;2023-12-29T00:24:05;26.88;;;16.90;;
71730;SDS011;65964;43.496;3.710;2023-12-29T00:26:31;29.52;;;18.60;;
71730;SDS011;65964;43.496;3.710;2023-12-29T00:28:57;28.77;;;17.63;;
71730;SDS011;65964;43.496;3.710;2023-12-29T00:31:23;27.67;;;17.75;;
71730;SDS011;65964;43.496;3.710;2023-12-29T00:33:50;27.98;;;16.23;;
71730;SDS011;65964;43.496;3.710;2023-12-29T00:36:17;25.20;;;16.38;;
71730;SDS011;65964;43.496;3.710;2023-12-29T00:38:43;24.20;;;15.68;;
71730;SDS011;65964;43.496;3.710;2023-12-29T00:41:09;27.05;;;16.45;;
71730;SDS011;65964;43.496;3.710;2023-12-29T00:43:35;25.88;;;15.50;;
71730;SDS011;65964;43.496;3.710;2023-12-29T00:46:05;26.77;;;16.95;;
71730;SDS011;65964;43.496;3.710;2023-12-29T00:48:34;25.50;;;15.23;;
71730;SDS011;65964;43.496;3.710;2023-12-29T00:51:00;26.80;;;16.05;;
71730;SDS011;65964;43.496;3.710;2023-12-29T00:53:27;23.85;;;14.75;;
71730;SDS011;65964;43.496;3.710;2023-12-29T00:55:54;31.23;;;19.52;;
71730;SDS011;65964;43.496;3.710;2023-12-29T00:58:20;24.63;;;15.15;;
71730;SDS011;65964;43.496;3.710;2023-12-29T01:00:46;21.05;;;14.88;;
71730;SDS011;65964;43.496;3.710;2023-12-29T01:03:12;22.27;;;14.82;;
71730;SDS011;65964;43.496;3.710;2023-12-29T01:05:38;25.77;;;15.75;;
71730;SDS011;65964;43.496;3.710;2023-12-29T01:08:04;24.60;;;17.13;;
71730;SDS011;65964;43.496;3.710;2023-12-29T01:10:30;24.77;;;15.95;;
71730;SDS011;65964;43.496;3.710;2023-12-29T01:12:56;28.25;;;17.75;;
71730;SDS011;65964;43.496;3.710;2023-12-29T01:15:22;28.00;;;17.50;;
71730;SDS011;65964;43.496;3.710;2023-12-29T01:17:48;25.85;;;15.55;;
71730;SDS011;65964;43.496;3.710;2023-12-29T01:20:14;24.73;;;16.08;;
71730;SDS011;65964;43.496;3.710;2023-12-29T01:22:40;26.70;;;16.85;;
71730;SDS011;65964;43.496;3.710;2023-12-29T01:25:07;26.70;;;17.73;;
71730;SDS011;65964;43.496;3.710;2023-12-29T01:27:33;24.77;;;15.38;;
71730;SDS011;65964;43.496;3.710;2023-12-29T01:29:59;23.83;;;15.95;;
71730;SDS011;65964;43.496;3.710;2023-12-29T01:32:25;24.58;;;16.50;;
71730;SDS011;65964;43.496;3.710;2023-12-29T01:34:54;24.20;;;15.98;;
71730;SDS011;65964;43.496;3.710;2023-12-29T01:37:20;21.60;;;14.63;;
71730;SDS011;65964;43.496;3.710;2023-12-29T01:39:46;26.92;;;16.58;;
71730;SDS011;65964;43.496;3.710;2023-12-29T01:42:12;22.02;;;14.85;;
71730;SDS011;65964;43.496;3.710;2023-12-29T01:44:38;23.63;;;15.05;;
71730;SDS011;65964;43.496;3.710;2023-12-29T01:47:10;23.10;;;15.07;;
71730;SDS011;65964;43.496;3.710;2023-12-29T01:49:37;22.35;;;15.30;;
71730;SDS011;65964;43.496;3.710;2023-12-29T01:52:03;23.98;;;14.80;;
71730;SDS011;65964;43.496;3.710;2023-12-29T01:54:34;25.85;;;15.60;;
71730;SDS011;65964;43.496;3.710;2023-12-29T01:57:03;24.17;;;17.20;;
71730;SDS011;65964;43.496;3.710;2023-12-29T01:59:29;22.83;;;15.23;;
71730;SDS011;65964;43.496;3.710;2023-12-29T02:01:56;26.30;;;18.05;;
71730;SDS011;65964;43.496;3.710;2023-12-29T02:04:23;24.38;;;16.13;;
71730;SDS011;65964;43.496;3.710;2023-12-29T02:06:50;23.92;;;16.10;;
71730;SDS011;65964;43.496;3.710;2023-12-29T02:09:19;29.63;;;19.63;;
71730;SDS011;65964;43.496;3.710;2023-12-29T02:11:45;26.15;;;17.33;;
71730;SDS011;65964;43.496;3.710;2023-12-29T02:14:11;25.50;;;16.90;;
71730;SDS011;65964;43.496;3.710;2023-12-29T02:17:40;25.70;;;17.58;;
71730;SDS011;65964;43.496;3.710;2023-12-29T02:19:43;24.35;;;15.57;;
71730;SDS011;65964;43.496;3.710;2023-12-29T02:22:09;26.65;;;17.15;;
71730;SDS011;65964;43.496;3.710;2023-12-29T02:24:36;26.92;;;16.95;;
71730;SDS011;65964;43.496;3.710;2023-12-29T02:29:37;24.80;;;15.85;;
71730;SDS011;65964;43.496;3.710;2023-12-29T02:32:04;21.95;;;15.13;;
71730;SDS011;65964;43.496;3.710;2023-12-29T02:34:32;23.63;;;15.30;;
71730;SDS011;65964;43.496;3.710;2023-12-29T02:36:58;25.42;;;15.65;;
71730;SDS011;65964;43.496;3.710;2023-12-29T02:39:24;25.85;;;17.00;;
71730;SDS011;65964;43.496;3.710;2023-12-29T02:41:50;28.48;;;18.13;;
71730;SDS011;65964;43.496;3.710;2023-12-29T02:44:16;24.90;;;16.35;;
71730;SDS011;65964;43.496;3.710;2023-12-29T02:46:42;20.48;;;14.88;;
71730;SDS011;65964;43.496;3.710;2023-12-29T02:49:08;20.83;;;13.50;;
71730;SDS011;65964;43.496;3.710;2023-12-29T02:51:37;22.88;;;15.13;;
71730;SDS011;65964;43.496;3.710;2023-12-29T02:54:03;21.20;;;13.82;;
71730;SDS011;65964;43.496;3.710;2023-12-29T02:56:31;21.05;;;14.65;;
71730;SDS011;65964;43.496;3.710;2023-12-29T02:58:57;21.30;;;15.32;;
71730;SDS011;65964;43.496;3.710;2023-12-29T03:01:23;23.00;;;14.18;;
71730;SDS011;65964;43.496;3.710;2023-12-29T03:03:49;19.95;;;13.30;;
71730;SDS011;65964;43.496;3.710;2023-12-29T03:06:15;21.30;;;15.48;;
71730;SDS011;65964;43.496;3.710;2023-12-29T03:08:41;23.60;;;14.68;;
71730;SDS011;65964;43.496;3.710;2023-12-29T03:11:07;18.92;;;13.20;;
71730;SDS011;65964;43.496;3.710;2023-12-29T03:13:33;20.95;;;14.07;;
71730;SDS011;65964;43.496;3.710;2023-12-29T03:15:59;22.23;;;14.43;;
71730;SDS011;65964;43.496;3.710;2023-12-29T03:18:25;20.55;;;14.02;;
71730;SDS011;65964;43.496;3.710;2023-12-29T03:20:51;24.58;;;16.27;;
71730;SDS011;65964;43.496;3.710;2023-12-29T03:23:17;24.17;;;15.90;;
71730;SDS011;65964;43.496;3.710;2023-12-29T03:25:43;21.58;;;14.98;;
71730;SDS011;65964;43.496;3.710;2023-12-29T03:28:09;20.77;;;13.95;;
71730;SDS011;65964;43.496;3.710;2023-12-29T03:30:35;20.02;;;13.07;;
71730;SDS011;65964;43.496;3.710;2023-12-29T03:33:02;21.10;;;13.65;;
71730;SDS011;65964;43.496;3.710;2023-12-29T03:35:28;24.42;;;13.55;;
71730;SDS011;65964;43.496;3.710;2023-12-29T03:37:54;19.48;;;13.38;;
71730;SDS011;65964;43.496;3.710;2023-12-29T03:40:20;20.38;;;13.07;;
71730;SDS011;65964;43.496;3.710;2023-12-29T03:42:46;20.35;;;13.88;;
71730;SDS011;65964;43.496;3.710;2023-12-29T03:45:12;21.00;;;12.75;;
71730;SDS011;65964;43.496;3.710;2023-12-29T03:47:38;19.85;;;13.10;;
71730;SDS011;65964;43.496;3.710;2023-12-29T03:50:04;20.70;;;13.45;;
71730;SDS011;65964;43.496;3.710;2023-12-29T03:52:30;21.70;;;13.85;;
71730;SDS011;65964;43.496;3.710;2023-12-29T03:54:56;22.70;;;15.07;;
71730;SDS011;65964;43.496;3.710;2023-12-29T03:57:22;23.80;;;14.10;;
71730;SDS011;65964;43.496;3.710;2023-12-29T03:59:48;21.05;;;13.80;;
71730;SDS011;65964;43.496;3.710;2023-12-29T04:02:14;21.80;;;13.38;;
71730;SDS011;65964;43.496;3.710;2023-12-29T04:04:40;20.65;;;14.30;;
71730;SDS011;65964;43.496;3.710;2023-12-29T04:07:06;20.15;;;13.82;;
71730;SDS011;65964;43.496;3.710;2023-12-29T04:09:32;23.20;;;13.88;;
71730;SDS011;65964;43.496;3.710;2023-12-29T04:11:58;22.35;;;14.52;;
71730;SDS011;65964;43.496;3.710;2023-12-29T04:14:24;21.17;;;13.48;;
71730;SDS011;65964;43.496;3.710;2023-12-29T04:16:50;19.30;;;13.90;;
71730;SDS011;65964;43.496;3.710;2023-12-29T04:19:16;20.05;;;13.85;;
71730;SDS011;65964;43.496;3.710;2023-12-29T04:21:42;22.02;;;13.70;;
71730;SDS011;65964;43.496;3.710;2023-12-29T04:24:08;23.38;;;14.32;;
71730;SDS011;65964;43.496;3.710;2023-12-29T04:26:37;21.35;;;12.93;;
71730;SDS011;65964;43.496;3.710;2023-12-29T04:29:03;20.58;;;14.18;;
71730;SDS011;65964;43.496;3.710;2023-12-29T04:31:29;21.85;;;13.48;;
71730;SDS011;65964;43.496;3.710;2023-12-29T04:33:55;22.55;;;15.25;;
71730;SDS011;65964;43.496;3.710;2023-12-29T04:36:21;21.23;;;13.98;;
71730;SDS011;65964;43.496;3.710;2023-12-29T04:38:47;22.52;;;13.85;;
71730;SDS011;65964;43.496;3.710;2023-12-29T04:41:13;22.17;;;13.50;;
71730;SDS011;65964;43.496;3.710;2023-12-29T04:43:40;20.30;;;12.95;;
71730;SDS011;65964;43.496;3.710;2023-12-29T04:46:06;20.38;;;13.55;;
71730;SDS011;65964;43.496;3.710;2023-12-29T04:48:32;21.77;;;13.27;;
71730;SDS011;65964;43.496;3.710;2023-12-29T04:50:58;20.92;;;12.70;;
71730;SDS011;65964;43.496;3.710;2023-12-29T04:53:24;20.23;;;12.10;;
71730;SDS011;65964;43.496;3.710;2023-12-29T04:55:50;18.23;;;12.55;;
71730;SDS011;65964;43.496;3.710;2023-12-29T04:58:16;22.42;;;13.05;;
71730;SDS011;65964;43.496;3.710;2023-12-29T05:00:42;17.80;;;12.25;;
71730;SDS011;65964;43.496;3.710;2023-12-29T05:03:08;17.92;;;12.55;;
71730;SDS011;65964;43.496;3.710;2023-12-29T05:05:34;20.55;;;12.80;;
71730;SDS011;65964;43.496;3.710;2023-12-29T05:08:00;19.42;;;12.80;;
71730;SDS011;65964;43.496;3.710;2023-12-29T05:10:26;18.27;;;13.43;;
71730;SDS011;65964;43.496;3.710;2023-12-29T05:12:52;20.65;;;13.10;;
71730;SDS011;65964;43.496;3.710;2023-12-29T05:15:18;17.85;;;11.82;;
71730;SDS011;65964;43.496;3.710;2023-12-29T05:17:44;21.17;;;12.18;;
71730;SDS011;65964;43.496;3.710;2023-12-29T05:20:10;19.10;;;11.82;;
71730;SDS011;65964;43.496;3.710;2023-12-29T05:22:36;19.92;;;12.35;;
71730;SDS011;65964;43.496;3.710;2023-12-29T05:25:02;19.30;;;12.23;;
71730;SDS011;65964;43.496;3.710;2023-12-29T05:27:28;19.08;;;12.90;;
71730;SDS011;65964;43.496;3.710;2023-12-29T05:29:54;17.13;;;12.48;;
71730;SDS011;65964;43.496;3.710;2023-12-29T05:32:20;23.02;;;13.55;;
71730;SDS011;65964;43.496;3.710;2023-12-29T05:34:46;20.27;;;12.65;;
71730;SDS011;65964;43.496;3.710;2023-12-29T05:37:12;26.48;;;13.82;;
71730;SDS011;65964;43.496;3.710;2023-12-29T05:39:41;18.00;;;12.45;;
71730;SDS011;65964;43.496;3.710;2023-12-29T05:42:07;19.02;;;13.60;;
71730;SDS011;65964;43.496;3.710;2023-12-29T05:44:35;24.23;;;16.50;;
71730;SDS011;65964;43.496;3.710;2023-12-29T05:47:02;21.52;;;14.63;;
71730;SDS011;65964;43.496;3.710;2023-12-29T05:49:28;22.98;;;13.65;;
71730;SDS011;65964;43.496;3.710;2023-12-29T05:51:54;19.00;;;12.10;;
71730;SDS011;65964;43.496;3.710;2023-12-29T05:54:20;20.23;;;12.45;;
71730;SDS011;65964;43.496;3.710;2023-12-29T05:56:46;21.50;;;12.65;;
71730;SDS011;65964;43.496;3.710;2023-12-29T05:59:12;20.70;;;12.63;;
71730;SDS011;65964;43.496;3.710;2023-12-29T06:01:38;20.50;;;12.88;;
71730;SDS011;65964;43.496;3.710;2023-12-29T06:04:04;21.65;;;12.82;;
71730;SDS011;65964;43.496;3.710;2023-12-29T06:06:30;19.35;;;12.82;;
71730;SDS011;65964;43.496;3.710;2023-12-29T06:08:56;18.50;;;13.10;;
71730;SDS011;65964;43.496;3.710;2023-12-29T06:11:22;22.33;;;13.88;;
71730;SDS011;65964;43.496;3.710;2023-12-29T06:13:48;25.55;;;13.20;;
71730;SDS011;65964;43.496;3.710;2023-12-29T06:16:17;19.63;;;13.15;;
71730;SDS011;65964;43.496;3.710;2023-12-29T06:18:43;18.05;;;12.15;;
71730;SDS011;65964;43.496;3.710;2023-12-29T06:21:09;18.58;;;12.18;;
71730;SDS011;65964;43.496;3.710;2023-12-29T06:23:35;16.88;;;11.35;;
71730;SDS011;65964;43.496;3.710;2023-12-29T06:26:01;17.35;;;12.00;;
71730;SDS011;65964;43.496;3.710;2023-12-29T06:28:27;18.45;;;12.25;;
71730;SDS011;65964;43.496;3.710;2023-12-29T06:30:53;22.02;;;12.25;;
71730;SDS011;65964;43.496;3.710;2023-12-29T06:33:19;18.67;;;11.55;;
71730;SDS011;65964;43.496;3.710;2023-12-29T06:35:47;19.83;;;11.77;;
71730;SDS011;65964;43.496;3.710;2023-12-29T06:38:13;20.73;;;12.07;;
71730;SDS011;65964;43.496;3.710;2023-12-29T06:40:39;19.95;;;11.07;;
71730;SDS011;65964;43.496;3.710;2023-12-29T06:43:05;16.88;;;11.20;;
71730;SDS011;65964;43.496;3.710;2023-12-29T06:45:31;19.90;;;12.07;;
71730;SDS011;65964;43.496;3.710;2023-12-29T06:47:57;18.23;;;11.10;;
71730;SDS011;65964;43.496;3.710;2023-12-29T06:50:23;19.58;;;12.27;;
71730;SDS011;65964;43.496;3.710;2023-12-29T06:52:49;17.52;;;11.88;;
71730;SDS011;65964;43.496;3.710;2023-12-29T06:55:15;19.65;;;12.60;;
71730;SDS011;65964;43.496;3.710;2023-12-29T06:57:41;20.85;;;12.40;;
71730;SDS011;65964;43.496;3.710;2023-12-29T07:00:07;19.48;;;12.90;;
71730;SDS011;65964;43.496;3.710;2023-12-29T07:02:33;18.25;;;12.30;;
71730;SDS011;65964;43.496;3.710;2023-12-29T07:04:59;23.48;;;15.38;;
71730;SDS011;65964;43.496;3.710;2023-12-29T07:07:26;20.00;;;14.25;;
71730;SDS011;65964;43.496;3.710;2023-12-29T07:09:52;17.88;;;12.60;;
71730;SDS011;65964;43.496;3.710;2023-12-29T07:12:18;19.42;;;12.35;;
71730;SDS011;65964;43.496;3.710;2023-12-29T07:14:44;19.23;;;13.27;;
71730;SDS011;65964;43.496;3.710;2023-12-29T07:17:10;24.23;;;15.27;;
71730;SDS011;65964;43.496;3.710;2023-12-29T07:19:36;23.08;;;15.90;;
71730;SDS011;65964;43.496;3.710;2023-12-29T07:22:05;20.45;;;14.55;;
71730;SDS011;65964;43.496;3.710;2023-12-29T07:24:32;19.02;;;13.07;;
71730;SDS011;65964;43.496;3.710;2023-12-29T07:26:58;26.45;;;16.88;;
71730;SDS011;65964;43.496;3.710;2023-12-29T07:29:24;34.88;;;22.95;;
71730;SDS011;65964;43.496;3.710;2023-12-29T07:31:51;24.70;;;16.60;;
71730;SDS011;65964;43.496;3.710;2023-12-29T07:34:17;35.35;;;21.45;;
71730;SDS011;65964;43.496;3.710;2023-12-29T07:36:43;27.33;;;16.05;;
71730;SDS011;65964;43.496;3.710;2023-12-29T07:39:09;20.83;;;13.48;;
71730;SDS011;65964;43.496;3.710;2023-12-29T07:41:39;19.65;;;12.50;;
71730;SDS011;65964;43.496;3.710;2023-12-29T07:44:06;18.52;;;12.45;;
71730;SDS011;65964;43.496;3.710;2023-12-29T07:46:32;20.27;;;12.88;;
71730;SDS011;65964;43.496;3.710;2023-12-29T07:48:58;18.67;;;12.73;;
71730;SDS011;65964;43.496;3.710;2023-12-29T07:51:24;19.52;;;12.02;;
71730;SDS011;65964;43.496;3.710;2023-12-29T07:53:50;20.45;;;13.18;;
71730;SDS011;65964;43.496;3.710;2023-12-29T07:56:16;20.92;;;13.40;;
71730;SDS011;65964;43.496;3.710;2023-12-29T07:58:42;21.05;;;12.05;;
71730;SDS011;65964;43.496;3.710;2023-12-29T08:01:08;22.15;;;13.57;;
71730;SDS011;65964;43.496;3.710;2023-12-29T08:03:35;21.45;;;12.65;;
71730;SDS011;65964;43.496;3.710;2023-12-29T08:06:01;21.10;;;13.07;;
71730;SDS011;65964;43.496;3.710;2023-12-29T08:08:27;21.38;;;12.52;;
71730;SDS011;65964;43.496;3.710;2023-12-29T08:10:53;20.25;;;13.18;;
71730;SDS011;65964;43.496;3.710;2023-12-29T08:13:19;20.92;;;14.32;;
71730;SDS011;65964;43.496;3.710;2023-12-29T08:15:45;20.58;;;13.27;;
71730;SDS011;65964;43.496;3.710;2023-12-29T08:18:11;23.90;;;14.38;;
71730;SDS011;65964;43.496;3.710;2023-12-29T08:20:37;19.52;;;13.25;;
71730;SDS011;65964;43.496;3.710;2023-12-29T08:23:03;21.17;;;13.32;;
71730;SDS011;65964;43.496;3.710;2023-12-29T08:25:29;19.50;;;12.60;;
71730;SDS011;65964;43.496;3.710;2023-12-29T08:27:55;22.10;;;14.32;;
71730;SDS011;65964;43.496;3.710;2023-12-29T08:30:21;23.23;;;13.45;;
71730;SDS011;65964;43.496;3.710;2023-12-29T08:32:47;23.08;;;14.30;;
71730;SDS011;65964;43.496;3.710;2023-12-29T08:35:13;21.08;;;14.77;;
71730;SDS011;65964;43.496;3.710;2023-12-29T08:37:39;24.17;;;16.23;;
71730;SDS011;65964;43.496;3.710;2023-12-29T08:40:06;29.10;;;19.63;;
71730;SDS011;65964;43.496;3.710;2023-12-29T08:42:32;45.72;;;27.60;;
71730;SDS011;65964;43.496;3.710;2023-12-29T08:44:59;28.30;;;18.92;;
71730;SDS011;65964;43.496;3.710;2023-12-29T08:47:25;23.17;;;15.23;;
71730;SDS011;65964;43.496;3.710;2023-12-29T08:49:51;21.55;;;15.55;;
71730;SDS011;65964;43.496;3.710;2023-12-29T08:52:19;19.52;;;14.70;;
71730;SDS011;65964;43.496;3.710;2023-12-29T08:54:45;19.83;;;14.38;;
71730;SDS011;65964;43.496;3.710;2023-12-29T08:57:11;21.38;;;13.30;;
71730;SDS011;65964;43.496;3.710;2023-12-29T08:59:37;21.00;;;13.90;;
71730;SDS011;65964;43.496;3.710;2023-12-29T09:02:03;20.83;;;14.23;;
71730;SDS011;65964;43.496;3.710;2023-12-29T09:04:29;21.05;;;13.55;;
71730;SDS011;65964;43.496;3.710;2023-12-29T09:06:55;21.77;;;13.50;;
71730;SDS011;65964;43.496;3.710;2023-12-29T09:09:21;19.73;;;13.77;;
71730;SDS011;65964;43.496;3.710;2023-12-29T09:11:48;21.55;;;13.18;;
71730;SDS011;65964;43.496;3.710;2023-12-29T09:14:14;21.25;;;14.88;;
71730;SDS011;65964;43.496;3.710;2023-12-29T09:16:40;20.25;;;14.90;;
71730;SDS011;65964;43.496;3.710;2023-12-29T09:19:07;19.60;;;13.52;;
71730;SDS011;65964;43.496;3.710;2023-12-29T09:21:33;22.80;;;14.52;;
71730;SDS011;65964;43.496;3.710;2023-12-29T09:23:59;20.88;;;13.98;;
71730;SDS011;65964;43.496;3.710;2023-12-29T09:26:25;20.10;;;13.80;;
71730;SDS011;65964;43.496;3.710;2023-12-29T09:28:51;20.85;;;13.43;;
71730;SDS011;65964;43.496;3.710;2023-12-29T09:31:17;20.20;;;13.63;;
71730;SDS011;65964;43.496;3.710;2023-12-29T09:33:43;20.20;;;13.75;;
71730;SDS011;65964;43.496;3.710;2023-12-29T09:36:09;22.83;;;14.02;;
71730;SDS011;65964;43.496;3.710;2023-12-29T09:38:35;23.88;;;15.48;;
71730;SDS011;65964;43.496;3.710;2023-12-29T09:41:07;20.38;;;14.07;;
71730;SDS011;65964;43.496;3.710;2023-12-29T09:43:34;22.30;;;12.98;;
71730;SDS011;65964;43.496;3.710;2023-12-29T09:46:01;23.83;;;12.82;;
71730;SDS011;65964;43.496;3.710;2023-12-29T09:48:29;23.05;;;13.95;;
71730;SDS011;65964;43.496;3.710;2023-12-29T09:50:57;24.13;;;16.60;;
71730;SDS011;65964;43.496;3.710;2023-12-29T09:53:23;19.40;;;12.50;;
71730;SDS011;65964;43.496;3.710;2023-12-29T09:55:51;18.33;;;12.45;;
71730;SDS011;65964;43.496;3.710;2023-12-29T09:58:18;21.90;;;13.27;;
71730;SDS011;65964;43.496;3.710;2023-12-29T10:00:46;19.40;;;12.80;;
71730;SDS011;65964;43.496;3.710;2023-12-29T10:03:12;17.90;;;12.15;;
71730;SDS011;65964;43.496;3.710;2023-12-29T10:05:38;19.10;;;12.50;;
71730;SDS011;65964;43.496;3.710;2023-12-29T10:08:04;19.25;;;12.40;;
71730;SDS011;65964;43.496;3.710;2023-12-29T10:10:33;17.77;;;12.00;;
71730;SDS011;65964;43.496;3.710;2023-12-29T10:13:01;21.08;;;13.57;;
71730;SDS011;65964;43.496;3.710;2023-12-29T10:16:02;16.50;;;11.70;;
71730;SDS011;65964;43.496;3.710;2023-12-29T10:18:35;17.02;;;11.75;;
71730;SDS011;65964;43.496;3.710;2023-12-29T10:23:36;18.13;;;11.77;;
71730;SDS011;65964;43.496;3.710;2023-12-29T10:26:04;17.77;;;11.65;;
71730;SDS011;65964;43.496;3.710;2023-12-29T10:28:31;20.90;;;12.20;;
71730;SDS011;65964;43.496;3.710;2023-12-29T10:30:57;18.38;;;11.70;;
71730;SDS011;65964;43.496;3.710;2023-12-29T10:33:23;19.65;;;13.00;;
71730;SDS011;65964;43.496;3.710;2023-12-29T10:35:57;19.05;;;12.88;;
71730;SDS011;65964;43.496;3.710;2023-12-29T10:38:27;21.17;;;13.90;;
71730;SDS011;65964;43.496;3.710;2023-12-29T10:40:53;20.35;;;12.57;;
71730;SDS011;65964;43.496;3.710;2023-12-29T10:43:25;18.17;;;12.98;;
71730;SDS011;65964;43.496;3.710;2023-12-29T10:46:05;18.73;;;11.93;;
71730;SDS011;65964;43.496;3.710;2023-12-29T10:48:32;18.55;;;11.63;;
71730;SDS011;65964;43.496;3.710;2023-12-29T10:50:58;16.83;;;10.65;;
71730;SDS011;65964;43.496;3.710;2023-12-29T10:53:26;18.88;;;12.57;;
71730;SDS011;65964;43.496;3.710;2023-12-29T10:55:54;19.55;;;12.25;;
71730;SDS011;65964;43.496;3.710;2023-12-29T10:58:20;18.17;;;12.52;;
71730;SDS011;65964;43.496;3.710;2023-12-29T11:00:46;20.00;;;12.48;;
71730;SDS011;65964;43.496;3.710;2023-12-29T11:03:14;16.48;;;10.95;;
71730;SDS011;65964;43.496;3.710;2023-12-29T11:05:43;18.17;;;11.25;;
71730;SDS011;65964;43.496;3.710;2023-12-29T11:08:16;17.17;;;10.98;;
71730;SDS011;65964;43.496;3.710;2023-12-29T11:10:42;19.80;;;12.80;;
71730;SDS011;65964;43.496;3.710;2023-12-29T11:13:10;18.35;;;12.30;;
71730;SDS011;65964;43.496;3.710;2023-12-29T11:15:40;18.58;;;12.85;;
71730;SDS011;65964;43.496;3.710;2023-12-29T11:18:07;17.45;;;12.25;;
71730;SDS011;65964;43.496;3.710;2023-12-29T11:20:34;18.30;;;10.93;;
71730;SDS011;65964;43.496;3.710;2023-12-29T11:23:01;20.75;;;13.55;;
71730;SDS011;65964;43.496;3.710;2023-12-29T11:25:29;18.33;;;11.98;;
71730;SDS011;65964;43.496;3.710;2023-12-29T11:27:55;21.33;;;13.38;;
71730;SDS011;65964;43.496;3.710;2023-12-29T11:30:22;19.15;;;11.45;;
71730;SDS011;65964;43.496;3.710;2023-12-29T11:40:36;16.80;;;11.60;;
71730;SDS011;65964;43.496;3.710;2023-12-29T11:43:07;18.23;;;12.18;;
71730;SDS011;65964;43.496;3.710;2023-12-29T11:45:35;17.90;;;11.20;;
71730;SDS011;65964;43.496;3.710;2023-12-29T11:48:01;16.15;;;11.65;;
71730;SDS011;65964;43.496;3.710;2023-12-29T11:50:28;17.85;;;13.20;;
71730;SDS011;65964;43.496;3.710;2023-12-29T11:52:55;17.77;;;11.90;;
71730;SDS011;65964;43.496;3.710;2023-12-29T11:55:21;16.55;;;11.00;;
71730;SDS011;65964;43.496;3.710;2023-12-29T11:57:47;14.63;;;10.02;;
71730;SDS011;65964;43.496;3.710;2023-12-29T12:00:13;13.80;;;9.75;;
71730;SDS011;65964;43.496;3.710;2023-12-29T12:02:41;17.30;;;9.82;;
71730;SDS011;65964;43.496;3.710;2023-12-29T12:05:10;15.38;;;9.80;;
71730;SDS011;65964;43.496;3.710;2023-12-29T12:12:48;22.65;;;13.95;;
71730;SDS011;65964;43.496;3.710;2023-12-29T12:17:58;18.23;;;11.60;;
71730;SDS011;65964;43.496;3.710;2023-12-29T12:20:24;15.63;;;11.05;;
71730;SDS011;65964;43.496;3.710;2023-12-29T12:22:56;14.98;;;10.55;;
71730;SDS011;65964;43.496;3.710;2023-12-29T12:25:25;16.50;;;11.32;;
71730;SDS011;65964;43.496;3.710;2023-12-29T12:27:53;15.25;;;10.38;;
71730;SDS011;65964;43.496;3.710;2023-12-29T12:30:19;18.25;;;12.43;;
71730;SDS011;65964;43.496;3.710;2023-12-29T12:32:46;16.40;;;10.18;;
71730;SDS011;65964;43.496;3.710;2023-12-29T12:35:15;15.73;;;10.52;;
71730;SDS011;65964;43.496;3.710;2023-12-29T12:37:41;20.70;;;11.43;;
71730;SDS011;65964;43.496;3.710;2023-12-29T12:40:07;15.57;;;9.70;;
71730;SDS011;65964;43.496;3.710;2023-12-29T12:42:38;23.15;;;15.45;;
71730;SDS011;65964;43.496;3.710;2023-12-29T12:45:11;20.00;;;13.77;;
71730;SDS011;65964;43.496;3.710;2023-12-29T12:47:43;18.88;;;12.70;;
71730;SDS011;65964;43.496;3.710;2023-12-29T12:50:10;13.50;;;10.35;;
71730;SDS011;65964;43.496;3.710;2023-12-29T12:52:37;12.70;;;9.68;;
71730;SDS011;65964;43.496;3.710;2023-12-29T12:55:04;14.70;;;9.90;;
71730;SDS011;65964;43.496;3.710;2023-12-29T12:57:30;15.68;;;9.65;;
71730;SDS011;65964;43.496;3.710;2023-12-29T12:59:57;15.88;;;10.27;;
71730;SDS011;65964;43.496;3.710;2023-12-29T13:02:24;16.70;;;10.88;;
71730;SDS011;65964;43.496;3.710;2023-12-29T13:04:50;12.52;;;9.38;;
71730;SDS011;65964;43.496;3.710;2023-12-29T13:07:18;20.00;;;10.32;;
71730;SDS011;65964;43.496;3.710;2023-12-29T13:09:51;15.85;;;9.63;;
71730;SDS011;65964;43.496;3.710;2023-12-29T13:12:18;19.55;;;14.18;;
71730;SDS011;65964;43.496;3.710;2023-12-29T13:14:44;21.80;;;13.50;;
71730;SDS011;65964;43.496;3.710;2023-12-29T13:17:14;17.60;;;12.40;;
71730;SDS011;65964;43.496;3.710;2023-12-29T13:19:42;16.75;;;10.95;;
71730;SDS011;65964;43.496;3.710;2023-12-29T13:22:09;18.65;;;11.05;;
71730;SDS011;65964;43.496;3.710;2023-12-29T13:24:36;15.07;;;9.88;;
71730;SDS011;65964;43.496;3.710;2023-12-29T13:27:07;13.23;;;9.32;;
71730;SDS011;65964;43.496;3.710;2023-12-29T13:29:34;16.08;;;10.68;;
71730;SDS011;65964;43.496;3.710;2023-12-29T13:32:10;15.68;;;10.02;;
71730;SDS011;65964;43.496;3.710;2023-12-29T13:37:25;21.25;;;14.80;;
71730;SDS011;65964;43.496;3.710;2023-12-29T13:42:31;18.88;;;10.85;;
71730;SDS011;65964;43.496;3.710;2023-12-29T13:44:58;20.60;;;10.55;;
71730;SDS011;65964;43.496;3.710;2023-12-29T13:47:25;24.20;;;16.35;;
71730;SDS011;65964;43.496;3.710;2023-12-29T13:49:51;21.42;;;15.70;;
71730;SDS011;65964;43.496;3.710;2023-12-29T13:52:17;22.83;;;16.38;;
71730;SDS011;65964;43.496;3.710;2023-12-29T13:54:44;19.70;;;13.90;;
71730;SDS011;65964;43.496;3.710;2023-12-29T13:57:10;21.17;;;16.20;;
71730;SDS011;65964;43.496;3.710;2023-12-29T13:59:36;20.48;;;12.88;;
71730;SDS011;65964;43.496;3.710;2023-12-29T14:02:03;19.52;;;13.13;;
71730;SDS011;65964;43.496;3.710;2023-12-29T14:04:41;15.73;;;11.18;;
71730;SDS011;65964;43.496;3.710;2023-12-29T14:07:07;15.95;;;10.38;;
71730;SDS011;65964;43.496;3.710;2023-12-29T14:09:34;14.30;;;9.98;;
71730;SDS011;65964;43.496;3.710;2023-12-29T14:12:00;17.83;;;10.88;;
71730;SDS011;65964;43.496;3.710;2023-12-29T14:14:26;14.98;;;10.55;;
71730;SDS011;65964;43.496;3.710;2023-12-29T14:16:53;15.15;;;9.63;;
71730;SDS011;65964;43.496;3.710;2023-12-29T14:19:19;14.32;;;10.00;;
71730;SDS011;65964;43.496;3.710;2023-12-29T14:21:49;17.83;;;9.48;;
71730;SDS011;65964;43.496;3.710;2023-12-29T14:24:16;15.60;;;9.50;;
71730;SDS011;65964;43.496;3.710;2023-12-29T14:26:53;13.70;;;9.20;;
71730;SDS011;65964;43.496;3.710;2023-12-29T14:29:21;16.45;;;9.05;;
71730;SDS011;65964;43.496;3.710;2023-12-29T14:31:47;14.02;;;9.10;;
71730;SDS011;65964;43.496;3.710;2023-12-29T14:34:16;15.07;;;9.45;;
71730;SDS011;65964;43.496;3.710;2023-12-29T14:36:42;14.80;;;9.50;;
71730;SDS011;65964;43.496;3.710;2023-12-29T14:39:09;18.20;;;11.18;;
71730;SDS011;65964;43.496;3.710;2023-12-29T14:41:35;15.52;;;10.02;;
71730;SDS011;65964;43.496;3.710;2023-12-29T14:44:02;13.10;;;9.15;;
71730;SDS011;65964;43.496;3.710;2023-12-29T14:46:28;16.08;;;10.15;;
71730;SDS011;65964;43.496;3.710;2023-12-29T14:48:56;15.32;;;9.98;;